Nathaniel B. Palmer — WBP3210 — position and weather

sailwx.info

Track history (hours):
 
Tides and Currents Weather Stations Pressure Air Temp Water Temp Dewpoint Dewpoint Depression Visibility Wind Speed Wind Dir Waves Ship Positions

Oceanographic research ship Nathaniel B. Palmer (USA)

Contact: Ethan Norris, ethan.norris.contractor@usap.gov

Detailed information on ship capabilities available from University of Delaware's Ocean Information Center and ARCUS's ALIAS (Arctic Logistics Information and Support) project.

More information available from US FCC via Universal Licensing System and Coast Guard Vessel Documentation Center.

Last reported at 2014-Sep-01 22:00 UTC. Time now 2014-Sep-01 23:50 UTC.
Position S 61°42' W 057°12'.

Type: Other ship. MMSI: 366610000.

Wind from 020 at 18 knots

Barometer 1019.5 mb
Air temperature -1.3 ° C
Water temperature 1.7 ° C

Date/timePositionNaut miles runAvg speedWind from/ knotsBaromVisibWave heightAir tempDewpointWater temp
2014-Sep-01 22:00S 61°42' W 057°12'12 6.2 020 / 181019.5 -1.3 1.7
2014-Sep-01 20:00S 61°54' W 057°06'21 5.2 360 / 131018.7 -1.4 1.8
2014-Sep-01 16:00S 62°00' W 057°48'3 0.7 100 / 51017.6 -1.8 1.8
2014-Sep-01 12:00S 62°00' W 057°54'0 0.0 160 / 31017.6 -1.2 1.7
2014-Sep-01 10:00S 62°00' W 057°54'0 0.0 020 / 31018.2 -2.5 1.7
2014-Sep-01 08:00S 62°00' W 057°54'0 0.0 230 / 61017.6 -1.2 1.7
2014-Sep-01 04:00S 62°00' W 057°54'18 9.2 230 / 111017.3 -1.3 1.8
2014-Sep-01 02:00S 62°12' W 058°24'13 6.4 280 / 201017.5 -2.1 1.7
2014-Sep-01 00:00S 62°06' W 058°48'6 2.8 150 / 31018.9 -3.7 1.7
2014-Aug-31 22:00S 62°06' W 058°36'15 7.3 310 / 261017.2 -4.1 1.8
2014-Aug-31 20:00S 62°18' W 058°54'15 7.3 300 / 221018.2 -3.1 1.6
2014-Aug-31 18:00S 62°06' W 059°12'2412.1 270 / 251018.7 -4.9 1.7
2014-Aug-31 16:00S 61°42' W 059°06'12 6.0 270 / 231019.6 -5.3 1.7
2014-Aug-31 14:00S 61°30' W 059°06'8 4.2 270 / 141020.7 -5.4 1.8
2014-Aug-31 12:00S 61°24' W 059°18'15 7.4 090 / 211021.1 -5.7 1.8
2014-Aug-31 10:00S 61°12' W 059°36'11 5.3 240 / 161021.2 -6.1 1.8
2014-Aug-31 08:00S 61°06' W 059°54'17 4.2 130 / 181021.5 -5.6 1.6
2014-Aug-31 04:00S 60°54' W 060°18'11 5.3 220 / 171022.1 -5.5 1.8
2014-Aug-31 02:00S 61°00' W 060°36'18 4.5 260 / 151021.6 -5.0 1.8
2014-Aug-30 22:00S 61°18' W 060°36'19 4.7 250 / 191020.0 -5.9 1.8
2014-Aug-30 18:00S 61°30' W 060°06'8 4.1 260 / 211018.7 -6.9 1.8
2014-Aug-30 16:00S 61°36' W 059°54'17 8.3 300 / 251018.6 -6.6 1.8
2014-Aug-30 14:00S 61°48' W 059°30'6 3.0 250 / 261016.1 -6.2 1.7
2014-Aug-30 12:00S 61°54' W 059°30'15 7.3 250 / 271017.3 -5.9 1.8
2014-Aug-30 10:00S 62°06' W 059°48'37 6.2 190 / 251017.1 -6.9 1.7
2014-Aug-30 04:00S 61°42' W 060°48'15 3.9 250 / 161019.9 -7.1 1.8
2014-Aug-30 00:00S 61°48' W 061°18'7 3.3 220 / 201020.0 -6.9 1.8
2014-Aug-29 22:00S 61°54' W 061°24'16 8.2 060 / 151020.3 -6.8 1.8
2014-Aug-29 20:00S 62°06' W 061°00'10 5.2 250 / 211018.4 -6.8 1.8
2014-Aug-29 18:00S 62°12' W 060°42'3 1.4 250 / 221018.2 -6.7 1.8
2014-Aug-29 16:00S 62°12' W 060°48'25 6.3 250 / 161020.0 -6.9 1.8
2014-Aug-29 12:00S 62°12' W 061°42'8 4.1 230 / 91020.7 -6.7 1.8
2014-Aug-29 10:00S 62°06' W 061°54'15 7.3 060 / 31020.4 -6.5 1.8
2014-Aug-29 08:00S 61°54' W 062°12'19 4.6 110 / 51020.4 -7.2 1.8
2014-Aug-29 04:00S 62°06' W 062°42'3 1.4 110 / 131020.2 -7.1 1.8
2014-Aug-29 02:00S 62°06' W 062°48'2311.4 070 / 131019.9 -7.1 1.8
2014-Aug-29 00:00S 62°24' W 062°18'0 0.0 060 / 131019.9 -7.5 1.8
2014-Aug-28 22:00S 62°24' W 062°18'18 9.2 110 / 131020.1 -7.3 1.8
2014-Aug-28 20:00S 62°36' W 061°48'6 3.0 030 / 81020.2 -7.9 1.8
2014-Aug-28 18:00S 62°42' W 061°48'30 7.6 080 / 111019.8 -7.9 1.8
2014-Aug-28 14:00S 62°42' W 060°42'0 0.0 090 / 161019.6 -7.7 1.8
2014-Aug-28 12:00S 62°42' W 060°42'8 4.1 080 / 181019.2 -8.8 1.8
2014-Aug-28 10:00S 62°42' W 060°24'19 9.6 080 / 201019.4 -8.6 1.8
2014-Aug-28 08:00S 62°42' W 059°42'47 7.9 090 / 131019.7 -9.0 1.6
2014-Aug-28 02:00S 62°06' W 058°36'0 0.0 070 / 211019.5 -9.4 1.8
2014-Aug-28 00:00S 62°06' W 058°36'0 0.0 360 / 221019.2 -9.8 1.7
2014-Aug-27 22:00S 62°06' W 058°36'0 0.0 010 / 191019.5 -9.6 1.8
2014-Aug-27 20:00S 62°06' W 058°36'11 5.6 070 / 231019.3 -9.5 1.7
2014-Aug-27 18:00S 62°06' W 058°12'7 3.3 080 / 241018.2 -9.2 1.8
2014-Aug-27 16:00S 62°00' W 058°18'7 3.3 280 / 161019.9 -9.1 1.7
2014-Aug-27 14:00S 61°54' W 058°12'7 3.3 170 / 171018.2 -8.3 1.7
2014-Aug-27 12:00S 62°00' W 058°18'8 4.1 070 / 271017.7 -7.1 1.8
2014-Aug-27 10:00S 62°06' W 058°06'27 4.4 090 / 241017.4 -6.5 1.4
2014-Aug-27 04:00S 62°24' W 057°24'10 5.1 120 / 111014.4 -5.6 1.8
2014-Aug-27 02:00S 62°30' W 057°06'8 4.1 260 / 111012.8 -5.4 1.8
2014-Aug-27 00:00S 62°36' W 056°54'7 3.3 260 / 131011.7 -5.3 1.7
2014-Aug-26 22:00S 62°42' W 057°00'16 8.1 250 / 201010.1 -3.4 1.8
2014-Aug-26 20:00S 62°54' W 057°24'6 3.0 260 / 251008.0 -3.5 1.9
2014-Aug-26 18:00S 62°48' W 057°24'55 3.9 260 / 191006.9 -3.9 1.8
2014-Aug-26 04:00S 62°24' W 059°12'15 7.3 270 / 291001.0 -0.0 1.5
2014-Aug-26 02:00S 62°36' W 058°54'16 4.1 280 / 271002.1 -0.5 1.8
2014-Aug-25 22:00S 62°48' W 058°30'7 3.3 300 / 161004.2 -1.4 1.8
2014-Aug-25 20:00S 62°54' W 058°24'8 4.1 210 / 101004.6 -2.0 1.8
2014-Aug-25 18:00S 63°00' W 058°36'10 5.1 280 / 101005.8 -2.1 1.8
2014-Aug-25 16:00S 63°06' W 058°54'7 3.3 160 / 131008.6 -2.8 1.8
2014-Aug-25 14:00S 63°00' W 059°00'8 4.1 270 / 91010.2 -3.2 1.8
2014-Aug-25 12:00S 62°54' W 059°12'5 2.7 260 / 81011.9 -3.3 1.8
2014-Aug-25 10:00S 62°54' W 059°24'13 6.6 170 / 91013.5 -3.5 1.8
2014-Aug-25 08:00S 62°42' W 059°36'11 2.8 260 / 131014.6 -2.9 1.8
2014-Aug-25 04:00S 62°42' W 060°00'15 1.8 280 / 211015.5 -2.1 1.5
2014-Aug-24 20:00S 62°54' W 060°18'18 4.5 270 / 201016.6 -0.4 1.7
2014-Aug-24 16:00S 63°06' W 059°48'10 2.5 230 / 301014.9 -2.0 1.7
2014-Aug-24 12:00S 63°12' W 060°06'14 7.2 270 / 291015.0 -2.6 1.6
2014-Aug-24 10:00S 63°24' W 060°24'23 3.8 350 / 391014.4 -3.3 1.7
2014-Aug-24 04:00S 63°06' W 060°54'16 8.1 250 / 171017.0 -2.9 1.8
2014-Aug-24 02:00S 62°54' W 061°18'3 1.4 250 / 151018.2 -2.8 1.7
2014-Aug-24 00:00S 62°54' W 061°24'31 7.7 270 / 251017.9 -2.8 1.7
2014-Aug-23 20:00S 62°30' W 062°06'36 6.1 240 / 181017.2 -2.8 1.8
2014-Aug-23 14:00S 61°54' W 062°18'18 9.1 230 / 321014.4 -3.2 1.8
2014-Aug-23 12:00S 61°36' W 062°24'18 9.1 240 / 301014.1 -3.1 1.8
2014-Aug-23 10:00S 61°18' W 062°30'18 9.1 240 / 291013.5 -2.5 1.8
2014-Aug-23 08:00S 61°00' W 062°36'31 7.8 250 / 291013.3 -2.3 1.8
2014-Aug-23 04:00S 60°30' W 062°54'18 9.1 240 / 361010.1 -1.9 1.6
2014-Aug-23 02:00S 60°12' W 063°00'18 9.1 230 / 321009.1 -1.8 1.5
2014-Aug-23 00:00S 59°54' W 063°06'6 3.0 240 / 321007.3 -0.7 1.1
2014-Aug-22 22:00S 59°48' W 063°06'   260 / 291006.5 -0.4 1.1
Track history (hours):
 
Tides and Currents Weather Stations Pressure Air Temp Water Temp Dewpoint Dewpoint Depression Visibility Wind Speed Wind Dir Waves Ship Positions

Oceanographic research ship Nathaniel B. Palmer (USA)

Contact: Ethan Norris, ethan.norris.contractor@usap.gov

Detailed information on ship capabilities available from University of Delaware's Ocean Information Center and ARCUS's ALIAS (Arctic Logistics Information and Support) project.

More information available from US FCC via Universal Licensing System and Coast Guard Vessel Documentation Center.

Last reported at 2014-Sep-01 22:00 UTC. Time now 2014-Sep-01 23:50 UTC.
Position S 61°42' W 057°12'.

Type: Other ship. MMSI: 366610000.

Wind from 020 at 18 knots

Barometer 1019.5 mb
Air temperature -1.3 ° C
Water temperature 1.7 ° C

Date/timePositionNaut miles runAvg speedWind from/ knotsBaromVisibWave heightAir tempDewpointWater temp
2014-Sep-01 22:00S 61°42' W 057°12'12 6.2 020 / 181019.5 -1.3 1.7
2014-Sep-01 20:00S 61°54' W 057°06'21 5.2 360 / 131018.7 -1.4 1.8
2014-Sep-01 16:00S 62°00' W 057°48'3 0.7 100 / 51017.6 -1.8 1.8
2014-Sep-01 12:00S 62°00' W 057°54'0 0.0 160 / 31017.6 -1.2 1.7
2014-Sep-01 10:00S 62°00' W 057°54'0 0.0 020 / 31018.2 -2.5 1.7
2014-Sep-01 08:00S 62°00' W 057°54'0 0.0 230 / 61017.6 -1.2 1.7
2014-Sep-01 04:00S 62°00' W 057°54'18 9.2 230 / 111017.3 -1.3 1.8
2014-Sep-01 02:00S 62°12' W 058°24'13 6.4 280 / 201017.5 -2.1 1.7
2014-Sep-01 00:00S 62°06' W 058°48'6 2.8 150 / 31018.9 -3.7 1.7
2014-Aug-31 22:00S 62°06' W 058°36'15 7.3 310 / 261017.2 -4.1 1.8
2014-Aug-31 20:00S 62°18' W 058°54'15 7.3 300 / 221018.2 -3.1 1.6
2014-Aug-31 18:00S 62°06' W 059°12'2412.1 270 / 251018.7 -4.9 1.7
2014-Aug-31 16:00S 61°42' W 059°06'12 6.0 270 / 231019.6 -5.3 1.7
2014-Aug-31 14:00S 61°30' W 059°06'8 4.2 270 / 141020.7 -5.4 1.8
2014-Aug-31 12:00S 61°24' W 059°18'15 7.4 090 / 211021.1 -5.7 1.8
2014-Aug-31 10:00S 61°12' W 059°36'11 5.3 240 / 161021.2 -6.1 1.8
2014-Aug-31 08:00S 61°06' W 059°54'17 4.2 130 / 181021.5 -5.6 1.6
2014-Aug-31 04:00S 60°54' W 060°18'11 5.3 220 / 171022.1 -5.5 1.8
2014-Aug-31 02:00S 61°00' W 060°36'18 4.5 260 / 151021.6 -5.0 1.8
2014-Aug-30 22:00S 61°18' W 060°36'19 4.7 250 / 191020.0 -5.9 1.8
2014-Aug-30 18:00S 61°30' W 060°06'8 4.1 260 / 211018.7 -6.9 1.8
2014-Aug-30 16:00S 61°36' W 059°54'17 8.3 300 / 251018.6 -6.6 1.8
2014-Aug-30 14:00S 61°48' W 059°30'6 3.0 250 / 261016.1 -6.2 1.7
2014-Aug-30 12:00S 61°54' W 059°30'15 7.3 250 / 271017.3 -5.9 1.8
2014-Aug-30 10:00S 62°06' W 059°48'37 6.2 190 / 251017.1 -6.9 1.7
2014-Aug-30 04:00S 61°42' W 060°48'15 3.9 250 / 161019.9 -7.1 1.8
2014-Aug-30 00:00S 61°48' W 061°18'7 3.3 220 / 201020.0 -6.9 1.8
2014-Aug-29 22:00S 61°54' W 061°24'16 8.2 060 / 151020.3 -6.8 1.8
2014-Aug-29 20:00S 62°06' W 061°00'10 5.2 250 / 211018.4 -6.8 1.8
2014-Aug-29 18:00S 62°12' W 060°42'3 1.4 250 / 221018.2 -6.7 1.8
2014-Aug-29 16:00S 62°12' W 060°48'25 6.3 250 / 161020.0 -6.9 1.8
2014-Aug-29 12:00S 62°12' W 061°42'8 4.1 230 / 91020.7 -6.7 1.8
2014-Aug-29 10:00S 62°06' W 061°54'15 7.3 060 / 31020.4 -6.5 1.8
2014-Aug-29 08:00S 61°54' W 062°12'19 4.6 110 / 51020.4 -7.2 1.8
2014-Aug-29 04:00S 62°06' W 062°42'3 1.4 110 / 131020.2 -7.1 1.8
2014-Aug-29 02:00S 62°06' W 062°48'2311.4 070 / 131019.9 -7.1 1.8
2014-Aug-29 00:00S 62°24' W 062°18'0 0.0 060 / 131019.9 -7.5 1.8
2014-Aug-28 22:00S 62°24' W 062°18'18 9.2 110 / 131020.1 -7.3 1.8
2014-Aug-28 20:00S 62°36' W 061°48'6 3.0 030 / 81020.2 -7.9 1.8
2014-Aug-28 18:00S 62°42' W 061°48'30 7.6 080 / 111019.8 -7.9 1.8
2014-Aug-28 14:00S 62°42' W 060°42'0 0.0 090 / 161019.6 -7.7 1.8
2014-Aug-28 12:00S 62°42' W 060°42'8 4.1 080 / 181019.2 -8.8 1.8
2014-Aug-28 10:00S 62°42' W 060°24'19 9.6 080 / 201019.4 -8.6 1.8
2014-Aug-28 08:00S 62°42' W 059°42'47 7.9 090 / 131019.7 -9.0 1.6
2014-Aug-28 02:00S 62°06' W 058°36'0 0.0 070 / 211019.5 -9.4 1.8
2014-Aug-28 00:00S 62°06' W 058°36'0 0.0 360 / 221019.2 -9.8 1.7
2014-Aug-27 22:00S 62°06' W 058°36'0 0.0 010 / 191019.5 -9.6 1.8
2014-Aug-27 20:00S 62°06' W 058°36'11 5.6 070 / 231019.3 -9.5 1.7
2014-Aug-27 18:00S 62°06' W 058°12'7 3.3 080 / 241018.2 -9.2 1.8
2014-Aug-27 16:00S 62°00' W 058°18'7 3.3 280 / 161019.9 -9.1 1.7
2014-Aug-27 14:00S 61°54' W 058°12'7 3.3 170 / 171018.2 -8.3 1.7
2014-Aug-27 12:00S 62°00' W 058°18'8 4.1 070 / 271017.7 -7.1 1.8
2014-Aug-27 10:00S 62°06' W 058°06'27 4.4 090 / 241017.4 -6.5 1.4
2014-Aug-27 04:00S 62°24' W 057°24'10 5.1 120 / 111014.4 -5.6 1.8
2014-Aug-27 02:00S 62°30' W 057°06'8 4.1 260 / 111012.8 -5.4 1.8
2014-Aug-27 00:00S 62°36' W 056°54'7 3.3 260 / 131011.7 -5.3 1.7
2014-Aug-26 22:00S 62°42' W 057°00'16 8.1 250 / 201010.1 -3.4 1.8
2014-Aug-26 20:00S 62°54' W 057°24'6 3.0 260 / 251008.0 -3.5 1.9
2014-Aug-26 18:00S 62°48' W 057°24'55 3.9 260 / 191006.9 -3.9 1.8
2014-Aug-26 04:00S 62°24' W 059°12'15 7.3 270 / 291001.0 -0.0 1.5
2014-Aug-26 02:00S 62°36' W 058°54'16 4.1 280 / 271002.1 -0.5 1.8
2014-Aug-25 22:00S 62°48' W 058°30'7 3.3 300 / 161004.2 -1.4 1.8
2014-Aug-25 20:00S 62°54' W 058°24'8 4.1 210 / 101004.6 -2.0 1.8
2014-Aug-25 18:00S 63°00' W 058°36'10 5.1 280 / 101005.8 -2.1 1.8
2014-Aug-25 16:00S 63°06' W 058°54'7 3.3 160 / 131008.6 -2.8 1.8
2014-Aug-25 14:00S 63°00' W 059°00'8 4.1 270 / 91010.2 -3.2 1.8
2014-Aug-25 12:00S 62°54' W 059°12'5 2.7 260 / 81011.9 -3.3 1.8
2014-Aug-25 10:00S 62°54' W 059°24'13 6.6 170 / 91013.5 -3.5 1.8
2014-Aug-25 08:00S 62°42' W 059°36'11 2.8 260 / 131014.6 -2.9 1.8
2014-Aug-25 04:00S 62°42' W 060°00'15 1.8 280 / 211015.5 -2.1 1.5
2014-Aug-24 20:00S 62°54' W 060°18'18 4.5 270 / 201016.6 -0.4 1.7
2014-Aug-24 16:00S 63°06' W 059°48'10 2.5 230 / 301014.9 -2.0 1.7
2014-Aug-24 12:00S 63°12' W 060°06'14 7.2 270 / 291015.0 -2.6 1.6
2014-Aug-24 10:00S 63°24' W 060°24'23 3.8 350 / 391014.4 -3.3 1.7
2014-Aug-24 04:00S 63°06' W 060°54'16 8.1 250 / 171017.0 -2.9 1.8
2014-Aug-24 02:00S 62°54' W 061°18'3 1.4 250 / 151018.2 -2.8 1.7
2014-Aug-24 00:00S 62°54' W 061°24'31 7.7 270 / 251017.9 -2.8 1.7
2014-Aug-23 20:00S 62°30' W 062°06'36 6.1 240 / 181017.2 -2.8 1.8
2014-Aug-23 14:00S 61°54' W 062°18'18 9.1 230 / 321014.4 -3.2 1.8
2014-Aug-23 12:00S 61°36' W 062°24'18 9.1 240 / 301014.1 -3.1 1.8
2014-Aug-23 10:00S 61°18' W 062°30'18 9.1 240 / 291013.5 -2.5 1.8
2014-Aug-23 08:00S 61°00' W 062°36'31 7.8 250 / 291013.3 -2.3 1.8
2014-Aug-23 04:00S 60°30' W 062°54'18 9.1 240 / 361010.1 -1.9 1.6
2014-Aug-23 02:00S 60°12' W 063°00'18 9.1 230 / 321009.1 -1.8 1.5
2014-Aug-23 00:00S 59°54' W 063°06'6 3.0 240 / 321007.3 -0.7 1.1
2014-Aug-22 22:00S 59°48' W 063°06'   260 / 291006.5 -0.4 1.1

Dump ship's entire track history